sensor_id;sensor_type;location;lat;lon;timestamp;P1;durP1;ratioP1;P2;durP2;ratioP2
21517;SDS011;61765;45.794;24.150;2023-08-20T00:03:51;13.20;;;9.57;;
21517;SDS011;61765;45.794;24.150;2023-08-20T00:11:57;13.88;;;9.65;;
21517;SDS011;61765;45.794;24.150;2023-08-20T00:20:09;14.60;;;10.40;;
21517;SDS011;61765;45.794;24.150;2023-08-20T00:28:15;12.95;;;10.05;;
21517;SDS011;61765;45.794;24.150;2023-08-20T00:36:23;18.05;;;11.23;;
21517;SDS011;61765;45.794;24.150;2023-08-20T00:44:28;14.32;;;10.25;;
21517;SDS011;61765;45.794;24.150;2023-08-20T00:52:37;13.57;;;10.07;;
21517;SDS011;61765;45.794;24.150;2023-08-20T01:00:42;12.38;;;9.52;;
21517;SDS011;61765;45.794;24.150;2023-08-20T01:08:53;13.85;;;9.65;;
21517;SDS011;61765;45.794;24.150;2023-08-20T01:17:02;11.27;;;9.70;;
21517;SDS011;61765;45.794;24.150;2023-08-20T01:25:12;10.88;;;9.70;;
21517;SDS011;61765;45.794;24.150;2023-08-20T01:33:30;11.27;;;9.40;;
21517;SDS011;61765;45.794;24.150;2023-08-20T01:41:36;12.88;;;11.18;;
21517;SDS011;61765;45.794;24.150;2023-08-20T01:49:45;16.30;;;12.05;;
21517;SDS011;61765;45.794;24.150;2023-08-20T01:57:50;15.25;;;11.15;;
21517;SDS011;61765;45.794;24.150;2023-08-20T02:05:58;12.98;;;10.70;;
21517;SDS011;61765;45.794;24.150;2023-08-20T02:14:03;13.65;;;9.57;;
21517;SDS011;61765;45.794;24.150;2023-08-20T02:22:12;10.77;;;9.35;;
21517;SDS011;61765;45.794;24.150;2023-08-20T02:30:17;14.32;;;9.95;;
21517;SDS011;61765;45.794;24.150;2023-08-20T02:38:25;12.85;;;10.73;;
21517;SDS011;61765;45.794;24.150;2023-08-20T02:46:31;12.80;;;11.23;;
21517;SDS011;61765;45.794;24.150;2023-08-20T02:54:39;11.98;;;10.73;;
21517;SDS011;61765;45.794;24.150;2023-08-20T03:02:44;13.57;;;11.00;;
21517;SDS011;61765;45.794;24.150;2023-08-20T03:10:53;13.18;;;11.77;;
21517;SDS011;61765;45.794;24.150;2023-08-20T03:18:58;14.07;;;10.88;;
21517;SDS011;61765;45.794;24.150;2023-08-20T03:27:07;11.93;;;10.43;;
21517;SDS011;61765;45.794;24.150;2023-08-20T03:35:12;13.70;;;10.48;;
21517;SDS011;61765;45.794;24.150;2023-08-20T03:43:21;14.32;;;10.70;;
21517;SDS011;61765;45.794;24.150;2023-08-20T03:51:26;13.07;;;10.35;;
21517;SDS011;61765;45.794;24.150;2023-08-20T03:59:34;12.40;;;9.88;;
21517;SDS011;61765;45.794;24.150;2023-08-20T04:07:40;12.63;;;9.70;;
21517;SDS011;61765;45.794;24.150;2023-08-20T04:15:48;10.38;;;9.32;;
21517;SDS011;61765;45.794;24.150;2023-08-20T04:23:53;13.35;;;10.30;;
21517;SDS011;61765;45.794;24.150;2023-08-20T04:32:02;14.57;;;10.27;;
21517;SDS011;61765;45.794;24.150;2023-08-20T04:40:08;11.82;;;10.25;;
21517;SDS011;61765;45.794;24.150;2023-08-20T04:48:20;11.60;;;9.10;;
21517;SDS011;61765;45.794;24.150;2023-08-20T04:56:26;14.05;;;11.02;;
21517;SDS011;61765;45.794;24.150;2023-08-20T05:04:34;12.82;;;9.90;;
21517;SDS011;61765;45.794;24.150;2023-08-20T05:12:40;12.07;;;8.95;;
21517;SDS011;61765;45.794;24.150;2023-08-20T05:20:48;12.80;;;9.15;;
21517;SDS011;61765;45.794;24.150;2023-08-20T05:28:53;9.25;;;7.80;;
21517;SDS011;61765;45.794;24.150;2023-08-20T05:37:01;11.02;;;8.48;;
21517;SDS011;61765;45.794;24.150;2023-08-20T05:45:08;9.68;;;8.15;;
21517;SDS011;61765;45.794;24.150;2023-08-20T05:53:17;12.20;;;8.27;;
21517;SDS011;61765;45.794;24.150;2023-08-20T06:01:23;9.80;;;8.45;;
21517;SDS011;61765;45.794;24.150;2023-08-20T06:09:31;12.82;;;8.98;;
21517;SDS011;61765;45.794;24.150;2023-08-20T06:17:36;9.27;;;7.65;;
21517;SDS011;61765;45.794;24.150;2023-08-20T06:25:45;10.65;;;8.45;;
21517;SDS011;61765;45.794;24.150;2023-08-20T06:33:50;9.10;;;8.20;;
21517;SDS011;61765;45.794;24.150;2023-08-20T06:41:59;10.73;;;8.07;;
21517;SDS011;61765;45.794;24.150;2023-08-20T06:50:05;9.50;;;7.75;;
21517;SDS011;61765;45.794;24.150;2023-08-20T06:58:14;10.95;;;7.75;;
21517;SDS011;61765;45.794;24.150;2023-08-20T07:06:20;8.50;;;7.38;;
21517;SDS011;61765;45.794;24.150;2023-08-20T07:14:28;9.68;;;8.32;;
21517;SDS011;61765;45.794;24.150;2023-08-20T07:22:35;10.43;;;7.70;;
21517;SDS011;61765;45.794;24.150;2023-08-20T07:30:43;8.85;;;7.95;;
21517;SDS011;61765;45.794;24.150;2023-08-20T07:38:48;9.18;;;7.85;;
21517;SDS011;61765;45.794;24.150;2023-08-20T07:46:56;12.13;;;8.38;;
21517;SDS011;61765;45.794;24.150;2023-08-20T07:55:02;11.52;;;7.78;;
21517;SDS011;61765;45.794;24.150;2023-08-20T08:03:11;11.05;;;8.07;;
21517;SDS011;61765;45.794;24.150;2023-08-20T08:11:16;10.40;;;7.90;;
21517;SDS011;61765;45.794;24.150;2023-08-20T08:19:25;10.93;;;7.65;;
21517;SDS011;61765;45.794;24.150;2023-08-20T08:27:30;11.45;;;8.73;;
21517;SDS011;61765;45.794;24.150;2023-08-20T08:35:53;11.70;;;8.67;;
21517;SDS011;61765;45.794;24.150;2023-08-20T08:44:01;11.07;;;9.00;;
21517;SDS011;61765;45.794;24.150;2023-08-20T08:52:10;11.45;;;8.13;;
21517;SDS011;61765;45.794;24.150;2023-08-20T09:00:16;9.40;;;8.38;;
21517;SDS011;61765;45.794;24.150;2023-08-20T09:08:30;10.87;;;8.20;;
21517;SDS011;61765;45.794;24.150;2023-08-20T09:16:36;9.10;;;7.93;;
21517;SDS011;61765;45.794;24.150;2023-08-20T09:24:44;9.02;;;7.82;;
21517;SDS011;61765;45.794;24.150;2023-08-20T09:33:02;7.75;;;7.05;;
21517;SDS011;61765;45.794;24.150;2023-08-20T09:41:11;10.57;;;7.35;;
21517;SDS011;61765;45.794;24.150;2023-08-20T09:49:17;8.13;;;7.22;;
21517;SDS011;61765;45.794;24.150;2023-08-20T09:57:33;11.38;;;7.18;;
21517;SDS011;61765;45.794;24.150;2023-08-20T10:05:40;9.65;;;7.03;;
21517;SDS011;61765;45.794;24.150;2023-08-20T10:13:48;8.90;;;7.07;;
21517;SDS011;61765;45.794;24.150;2023-08-20T10:21:54;8.55;;;6.45;;
21517;SDS011;61765;45.794;24.150;2023-08-20T10:30:07;6.53;;;5.70;;
21517;SDS011;61765;45.794;24.150;2023-08-20T10:38:17;11.38;;;6.00;;
21517;SDS011;61765;45.794;24.150;2023-08-20T10:46:26;8.60;;;5.97;;
21517;SDS011;61765;45.794;24.150;2023-08-20T10:54:32;7.70;;;6.15;;
21517;SDS011;61765;45.794;24.150;2023-08-20T11:02:41;7.03;;;5.20;;
21517;SDS011;61765;45.794;24.150;2023-08-20T11:10:48;7.88;;;4.70;;
21517;SDS011;61765;45.794;24.150;2023-08-20T11:18:57;5.15;;;4.63;;
21517;SDS011;61765;45.794;24.150;2023-08-20T11:27:02;4.97;;;4.50;;
21517;SDS011;61765;45.794;24.150;2023-08-20T11:35:11;7.45;;;6.40;;
21517;SDS011;61765;45.794;24.150;2023-08-20T11:43:17;4.85;;;4.10;;
21517;SDS011;61765;45.794;24.150;2023-08-20T11:51:26;4.05;;;3.75;;
21517;SDS011;61765;45.794;24.150;2023-08-20T11:59:31;6.57;;;4.50;;
21517;SDS011;61765;45.794;24.150;2023-08-20T12:07:40;7.03;;;4.07;;
21517;SDS011;61765;45.794;24.150;2023-08-20T12:15:48;5.55;;;4.65;;
21517;SDS011;61765;45.794;24.150;2023-08-20T12:23:56;3.83;;;3.50;;
21517;SDS011;61765;45.794;24.150;2023-08-20T12:32:01;4.60;;;3.90;;
21517;SDS011;61765;45.794;24.150;2023-08-20T12:40:12;8.40;;;5.30;;
21517;SDS011;61765;45.794;24.150;2023-08-20T12:48:18;3.60;;;3.30;;
21517;SDS011;61765;45.794;24.150;2023-08-20T12:56:26;4.60;;;3.65;;
21517;SDS011;61765;45.794;24.150;2023-08-20T13:04:33;4.60;;;4.10;;
21517;SDS011;61765;45.794;24.150;2023-08-20T13:12:42;5.43;;;4.35;;
21517;SDS011;61765;45.794;24.150;2023-08-20T13:20:51;4.85;;;4.35;;
21517;SDS011;61765;45.794;24.150;2023-08-20T13:28:59;6.40;;;4.82;;
21517;SDS011;61765;45.794;24.150;2023-08-20T13:37:05;5.77;;;4.90;;
21517;SDS011;61765;45.794;24.150;2023-08-20T13:45:13;8.13;;;6.05;;
21517;SDS011;61765;45.794;24.150;2023-08-20T13:53:18;6.00;;;4.90;;
21517;SDS011;61765;45.794;24.150;2023-08-20T14:01:27;7.82;;;5.15;;
21517;SDS011;61765;45.794;24.150;2023-08-20T14:09:32;6.57;;;4.75;;
21517;SDS011;61765;45.794;24.150;2023-08-20T14:17:41;5.60;;;5.10;;
21517;SDS011;61765;45.794;24.150;2023-08-20T14:25:47;6.63;;;5.53;;
21517;SDS011;61765;45.794;24.150;2023-08-20T14:33:55;7.22;;;5.10;;
21517;SDS011;61765;45.794;24.150;2023-08-20T14:42:01;7.90;;;6.18;;
21517;SDS011;61765;45.794;24.150;2023-08-20T14:50:12;5.45;;;4.95;;
21517;SDS011;61765;45.794;24.150;2023-08-20T14:58:18;7.22;;;5.43;;
21517;SDS011;61765;45.794;24.150;2023-08-20T15:06:26;9.52;;;5.25;;
21517;SDS011;61765;45.794;24.150;2023-08-20T15:14:31;5.82;;;4.90;;
21517;SDS011;61765;45.794;24.150;2023-08-20T15:22:40;7.07;;;5.32;;
21517;SDS011;61765;45.794;24.150;2023-08-20T15:30:45;11.30;;;7.10;;
21517;SDS011;61765;45.794;24.150;2023-08-20T15:38:56;6.65;;;5.13;;
21517;SDS011;61765;45.794;24.150;2023-08-20T15:47:01;6.25;;;5.05;;
21517;SDS011;61765;45.794;24.150;2023-08-20T15:55:10;11.32;;;5.45;;
21517;SDS011;61765;45.794;24.150;2023-08-20T16:03:16;5.70;;;5.10;;
21517;SDS011;61765;45.794;24.150;2023-08-20T16:11:24;8.23;;;6.35;;
21517;SDS011;61765;45.794;24.150;2023-08-20T16:19:30;11.77;;;6.57;;
21517;SDS011;61765;45.794;24.150;2023-08-20T16:27:38;12.68;;;8.60;;
21517;SDS011;61765;45.794;24.150;2023-08-20T16:35:44;9.60;;;6.57;;
21517;SDS011;61765;45.794;24.150;2023-08-20T16:43:52;10.75;;;7.72;;
21517;SDS011;61765;45.794;24.150;2023-08-20T16:51:58;8.75;;;7.30;;
21517;SDS011;61765;45.794;24.150;2023-08-20T17:00:07;8.05;;;6.60;;
21517;SDS011;61765;45.794;24.150;2023-08-20T17:08:14;14.20;;;8.27;;
21517;SDS011;61765;45.794;24.150;2023-08-20T17:16:22;10.77;;;8.38;;
21517;SDS011;61765;45.794;24.150;2023-08-20T17:24:28;11.13;;;7.80;;
21517;SDS011;61765;45.794;24.150;2023-08-20T17:32:36;12.10;;;6.90;;
21517;SDS011;61765;45.794;24.150;2023-08-20T17:40:42;13.48;;;7.32;;
21517;SDS011;61765;45.794;24.150;2023-08-20T17:48:52;13.40;;;8.02;;
21517;SDS011;61765;45.794;24.150;2023-08-20T17:56:57;14.63;;;7.90;;
21517;SDS011;61765;45.794;24.150;2023-08-20T18:05:06;11.00;;;7.82;;
21517;SDS011;61765;45.794;24.150;2023-08-20T18:13:13;14.07;;;8.07;;
21517;SDS011;61765;45.794;24.150;2023-08-20T18:21:21;13.18;;;7.97;;
21517;SDS011;61765;45.794;24.150;2023-08-20T18:29:27;12.73;;;7.80;;
21517;SDS011;61765;45.794;24.150;2023-08-20T18:37:35;13.48;;;8.20;;
21517;SDS011;61765;45.794;24.150;2023-08-20T18:45:41;14.40;;;9.50;;
21517;SDS011;61765;45.794;24.150;2023-08-20T18:53:49;23.05;;;17.20;;
21517;SDS011;61765;45.794;24.150;2023-08-20T19:01:58;16.60;;;10.07;;
21517;SDS011;61765;45.794;24.150;2023-08-20T19:10:07;18.02;;;9.90;;
21517;SDS011;61765;45.794;24.150;2023-08-20T19:18:14;15.68;;;10.68;;
21517;SDS011;61765;45.794;24.150;2023-08-20T19:26:23;15.07;;;10.18;;
21517;SDS011;61765;45.794;24.150;2023-08-20T19:34:30;16.08;;;9.48;;
21517;SDS011;61765;45.794;24.150;2023-08-20T19:42:38;15.68;;;9.38;;
21517;SDS011;61765;45.794;24.150;2023-08-20T19:50:45;14.20;;;9.45;;
21517;SDS011;61765;45.794;24.150;2023-08-20T19:58:55;10.48;;;8.80;;
21517;SDS011;61765;45.794;24.150;2023-08-20T20:07:01;19.17;;;9.80;;
21517;SDS011;61765;45.794;24.150;2023-08-20T20:15:26;13.88;;;10.00;;
21517;SDS011;61765;45.794;24.150;2023-08-20T20:23:31;9.35;;;7.82;;
21517;SDS011;61765;45.794;24.150;2023-08-20T20:31:39;10.80;;;9.30;;
21517;SDS011;61765;45.794;24.150;2023-08-20T20:39:45;11.45;;;9.13;;
21517;SDS011;61765;45.794;24.150;2023-08-20T20:47:53;13.70;;;8.82;;
21517;SDS011;61765;45.794;24.150;2023-08-20T20:56:01;13.63;;;8.98;;
21517;SDS011;61765;45.794;24.150;2023-08-20T21:04:10;11.80;;;8.63;;
21517;SDS011;61765;45.794;24.150;2023-08-20T21:12:15;11.20;;;8.38;;
21517;SDS011;61765;45.794;24.150;2023-08-20T21:20:23;11.57;;;8.65;;
21517;SDS011;61765;45.794;24.150;2023-08-20T21:28:29;11.77;;;9.13;;
21517;SDS011;61765;45.794;24.150;2023-08-20T21:36:37;11.00;;;7.95;;
21517;SDS011;61765;45.794;24.150;2023-08-20T21:44:42;10.75;;;8.45;;
21517;SDS011;61765;45.794;24.150;2023-08-20T21:52:50;10.85;;;8.07;;
21517;SDS011;61765;45.794;24.150;2023-08-20T22:00:56;13.10;;;9.00;;
21517;SDS011;61765;45.794;24.150;2023-08-20T22:09:08;12.15;;;8.27;;
21517;SDS011;61765;45.794;24.150;2023-08-20T22:17:13;10.48;;;8.48;;
21517;SDS011;61765;45.794;24.150;2023-08-20T22:25:22;10.30;;;8.10;;
21517;SDS011;61765;45.794;24.150;2023-08-20T22:33:28;11.02;;;8.77;;
21517;SDS011;61765;45.794;24.150;2023-08-20T22:41:36;10.98;;;8.95;;
21517;SDS011;61765;45.794;24.150;2023-08-20T22:49:42;9.93;;;8.45;;
21517;SDS011;61765;45.794;24.150;2023-08-20T22:57:50;10.52;;;8.38;;
21517;SDS011;61765;45.794;24.150;2023-08-20T23:05:55;10.60;;;9.48;;
21517;SDS011;61765;45.794;24.150;2023-08-20T23:14:04;12.82;;;8.70;;
21517;SDS011;61765;45.794;24.150;2023-08-20T23:22:09;10.30;;;8.63;;
21517;SDS011;61765;45.794;24.150;2023-08-20T23:30:21;11.57;;;8.65;;
21517;SDS011;61765;45.794;24.150;2023-08-20T23:38:26;10.15;;;8.55;;
21517;SDS011;61765;45.794;24.150;2023-08-20T23:46:36;11.35;;;8.43;;
21517;SDS011;61765;45.794;24.150;2023-08-20T23:54:49;13.73;;;9.75;;
